Time;durP1;ratioP1;P1;durP2;ratioP2;P2;SDS_P1;SDS_P2;PMS_P1;PMS_P2;Temp;Humidity;BMP_temperature;BMP_pressure;BME280_temperature;BME280_humidity;BME280_pressure;Samples;Min_cycle;Max_cycle;Signal;HPM_P1;HPM_P2
2021/06/15 00:00:12;;;;;;;525.08;439.45;;;;;;;;;;5021060;28;20057;-82
2021/06/15 00:02:40;;;;;;;509.58;426.13;;;;;;;;;;5020164;28;20045;-80
2021/06/15 00:05:06;;;;;;;509.60;425.85;;;;;;;;;;5007661;28;20364;-81
2021/06/15 00:07:32;;;;;;;510.95;427.23;;;;;;;;;;5016651;28;20068;-81
2021/06/15 00:09:58;;;;;;;523.28;435.92;;;;;;;;;;5016652;28;20052;-82
2021/06/15 00:12:24;;;;;;;513.67;428.98;;;;;;;;;;5024846;28;20040;-81
2021/06/15 00:14:53;;;;;;;510.67;426.02;;;;;;;;;;5017776;28;20030;-82
2021/06/15 00:17:21;;;;;;;510.23;428.92;;;;;;;;;;5021138;28;20022;-81
2021/06/15 00:19:47;;;;;;;507.08;423.48;;;;;;;;;;4989997;28;20069;-81
2021/06/15 00:22:13;;;;;;;512.15;432.35;;;;;;;;;;5017157;28;20026;-82
2021/06/15 00:24:41;;;;;;;508.42;427.42;;;;;;;;;;5014512;28;20096;-81
2021/06/15 00:27:07;;;;;;;520.38;437.80;;;;;;;;;;5023236;28;20452;-80
2021/06/15 00:29:33;;;;;;;520.33;431.23;;;;;;;;;;5005962;28;20040;-81
2021/06/15 00:31:59;;;;;;;506.48;422.58;;;;;;;;;;5006007;28;20030;-81
2021/06/15 00:34:29;;;;;;;505.90;422.25;;;;;;;;;;5022938;28;20571;-81
2021/06/15 00:36:55;;;;;;;505.48;419.95;;;;;;;;;;5020517;28;20029;-82
2021/06/15 00:39:21;;;;;;;512.88;422.58;;;;;;;;;;5021505;28;20045;-80
2021/06/15 00:41:47;;;;;;;519.60;434.40;;;;;;;;;;5022193;28;20128;-80
2021/06/15 00:44:13;;;;;;;504.00;413.33;;;;;;;;;;5024047;28;20736;-81
2021/06/15 00:46:40;;;;;;;508.60;425.77;;;;;;;;;;5020309;28;20026;-82
2021/06/15 00:49:06;;;;;;;505.67;417.55;;;;;;;;;;5012567;28;20037;-81
2021/06/15 00:51:32;;;;;;;507.45;420.50;;;;;;;;;;5016460;28;20530;-81
2021/06/15 00:54:00;;;;;;;510.50;427.52;;;;;;;;;;5023014;28;20033;-82
2021/06/15 00:56:26;;;;;;;511.75;422.63;;;;;;;;;;5020570;28;20049;-81
2021/06/15 00:58:52;;;;;;;507.13;417.92;;;;;;;;;;5012611;28;20041;-80
2021/06/15 01:01:18;;;;;;;506.98;417.67;;;;;;;;;;5012077;28;20033;-80
2021/06/15 01:03:44;;;;;;;503.60;406.23;;;;;;;;;;5020934;28;20017;-81
2021/06/15 01:06:15;;;;;;;506.75;413.65;;;;;;;;;;5019659;28;20040;-81
2021/06/15 01:08:49;;;;;;;502.95;414.15;;;;;;;;;;5019665;28;20041;-81
2021/06/15 01:11:34;;;;;;;506.70;413.90;;;;;;;;;;5022550;28;20038;-80
2021/06/15 01:14:19;;;;;;;503.98;414.02;;;;;;;;;;5022793;28;20022;-81
2021/06/15 01:16:51;;;;;;;503.85;411.20;;;;;;;;;;5002284;28;20030;-81
2021/06/15 01:19:29;;;;;;;507.58;420.58;;;;;;;;;;5008701;28;20042;-81
2021/06/15 01:22:21;;;;;;;505.08;415.60;;;;;;;;;;5021358;28;20495;-81
2021/06/15 01:24:51;;;;;;;510.15;418.95;;;;;;;;;;4979507;28;20380;-82
2021/06/15 01:27:26;;;;;;;504.48;417.63;;;;;;;;;;5021546;28;20378;-80
2021/06/15 01:29:53;;;;;;;514.65;423.23;;;;;;;;;;5018185;28;20026;-81
2021/06/15 01:32:24;;;;;;;502.80;412.55;;;;;;;;;;5020388;28;20034;-80
2021/06/15 01:34:52;;;;;;;505.33;419.88;;;;;;;;;;5023013;28;20072;-81
2021/06/15 01:37:26;;;;;;;499.55;410.00;;;;;;;;;;5022195;28;20062;-80
2021/06/15 01:39:56;;;;;;;505.40;418.33;;;;;;;;;;5006495;28;20033;-81
2021/06/15 01:42:34;;;;;;;514.28;424.92;;;;;;;;;;5018173;28;20355;-80
2021/06/15 01:45:05;;;;;;;506.05;422.10;;;;;;;;;;5021540;28;20038;-81
2021/06/15 01:47:33;;;;;;;503.50;417.98;;;;;;;;;;5024235;28;20032;-81
2021/06/15 01:50:03;;;;;;;508.05;428.70;;;;;;;;;;5020953;28;20022;-81
2021/06/15 01:52:34;;;;;;;506.05;422.38;;;;;;;;;;5015618;28;20090;-81
2021/06/15 01:55:01;;;;;;;508.98;422.17;;;;;;;;;;5016028;28;20040;-82
2021/06/15 01:57:28;;;;;;;506.20;423.58;;;;;;;;;;5017416;28;20033;-82
2021/06/15 01:59:56;;;;;;;504.27;422.92;;;;;;;;;;5023853;28;20053;-81
2021/06/15 02:02:22;;;;;;;512.08;426.88;;;;;;;;;;5015540;28;20041;-80
2021/06/15 02:04:50;;;;;;;515.97;432.02;;;;;;;;;;5017708;28;20025;-81
2021/06/15 02:07:17;;;;;;;509.73;423.95;;;;;;;;;;5016203;28;20026;-81
2021/06/15 02:09:49;;;;;;;504.85;420.40;;;;;;;;;;5021170;28;20018;-81
2021/06/15 02:12:18;;;;;;;507.88;425.75;;;;;;;;;;5016236;28;20037;-81
2021/06/15 02:14:44;;;;;;;501.25;417.90;;;;;;;;;;5017099;28;20026;-81
2021/06/15 02:17:13;;;;;;;507.42;424.92;;;;;;;;;;5010429;28;20149;-81
2021/06/15 02:19:40;;;;;;;506.08;420.48;;;;;;;;;;5018650;28;20036;-82
2021/06/15 02:22:10;;;;;;;505.70;419.38;;;;;;;;;;5015954;28;20120;-81
2021/06/15 02:24:39;;;;;;;503.02;416.67;;;;;;;;;;5025547;28;20056;-82
2021/06/15 02:27:06;;;;;;;513.95;426.63;;;;;;;;;;5022930;28;20094;-81
2021/06/15 02:29:32;;;;;;;500.70;413.60;;;;;;;;;;5004970;28;20664;-81
2021/06/15 02:32:01;;;;;;;503.33;414.00;;;;;;;;;;5012461;28;20075;-81
2021/06/15 02:34:27;;;;;;;526.90;437.65;;;;;;;;;;5018325;28;20467;-81
2021/06/15 02:36:54;;;;;;;502.80;416.83;;;;;;;;;;5022109;28;20064;-82
2021/06/15 02:39:27;;;;;;;505.05;418.27;;;;;;;;;;5013468;28;20048;-81
2021/06/15 02:41:53;;;;;;;502.23;412.83;;;;;;;;;;5004460;28;20033;-80
2021/06/15 02:44:21;;;;;;;514.97;423.63;;;;;;;;;;5016130;28;20037;-81
2021/06/15 02:46:48;;;;;;;502.05;408.13;;;;;;;;;;4997555;28;20022;-81
2021/06/15 02:49:19;;;;;;;503.27;408.08;;;;;;;;;;5019198;28;20830;-81
2021/06/15 02:51:49;;;;;;;507.77;414.17;;;;;;;;;;5017783;28;20024;-82
2021/06/15 02:54:26;;;;;;;514.00;416.00;;;;;;;;;;5006606;28;20030;-82
2021/06/15 02:56:54;;;;;;;503.63;410.20;;;;;;;;;;5015665;28;20036;-81
2021/06/15 02:59:20;;;;;;;503.85;409.33;;;;;;;;;;5022693;28;20044;-81
2021/06/15 03:01:50;;;;;;;516.20;423.52;;;;;;;;;;5023998;28;20396;-81
2021/06/15 03:04:17;;;;;;;502.38;408.27;;;;;;;;;;5006657;28;20176;-82
2021/06/15 03:06:43;;;;;;;505.38;410.88;;;;;;;;;;5030242;28;20112;-80
2021/06/15 03:09:09;;;;;;;502.65;411.35;;;;;;;;;;5022537;28;20026;-81
2021/06/15 03:11:38;;;;;;;517.28;423.98;;;;;;;;;;5022582;28;20022;-81
2021/06/15 03:14:09;;;;;;;517.13;426.73;;;;;;;;;;5010286;28;20037;-82
2021/06/15 03:16:35;;;;;;;506.83;417.70;;;;;;;;;;5027911;28;20092;-80
2021/06/15 03:19:04;;;;;;;503.73;409.60;;;;;;;;;;5010129;28;20041;-81
2021/06/15 03:21:32;;;;;;;505.83;409.92;;;;;;;;;;5022979;28;20030;-82
2021/06/15 03:24:06;;;;;;;503.10;410.75;;;;;;;;;;5028790;28;20096;-80
2021/06/15 03:26:40;;;;;;;502.60;410.48;;;;;;;;;;5020780;28;20376;-81
2021/06/15 03:29:09;;;;;;;501.92;411.25;;;;;;;;;;5021046;28;20116;-82
2021/06/15 03:31:41;;;;;;;502.92;410.20;;;;;;;;;;5023165;28;20037;-80
2021/06/15 03:34:09;;;;;;;503.10;409.00;;;;;;;;;;5018070;28;20124;-81
2021/06/15 03:36:37;;;;;;;507.58;413.73;;;;;;;;;;5027020;28;20018;-81
2021/06/15 03:39:04;;;;;;;513.92;422.90;;;;;;;;;;5018764;28;20040;-80
2021/06/15 03:41:31;;;;;;;510.02;417.00;;;;;;;;;;5026421;28;20351;-81
2021/06/15 03:43:58;;;;;;;501.50;408.85;;;;;;;;;;5023395;28;20026;-81
2021/06/15 03:46:25;;;;;;;514.47;421.52;;;;;;;;;;5024518;28;20460;-81
2021/06/15 03:48:52;;;;;;;503.67;412.63;;;;;;;;;;5019882;28;20036;-81
2021/06/15 03:51:27;;;;;;;508.98;413.00;;;;;;;;;;5022602;28;20128;-81
2021/06/15 03:54:05;;;;;;;504.48;407.15;;;;;;;;;;5024560;28;20044;-82
2021/06/15 03:56:37;;;;;;;502.58;411.42;;;;;;;;;;5021324;28;20121;-82
2021/06/15 03:59:08;;;;;;;501.85;406.88;;;;;;;;;;5003833;28;20049;-81
2021/06/15 04:01:42;;;;;;;501.85;407.20;;;;;;;;;;5018644;28;20341;-81
2021/06/15 04:04:10;;;;;;;498.63;400.15;;;;;;;;;;5025352;28;20351;-81
2021/06/15 04:06:37;;;;;;;500.75;405.92;;;;;;;;;;5005590;28;20026;-82
2021/06/15 04:09:05;;;;;;;500.17;401.20;;;;;;;;;;5023217;28;20052;-81
2021/06/15 04:11:33;;;;;;;502.88;407.33;;;;;;;;;;5018730;28;20025;-81
2021/06/15 04:13:59;;;;;;;510.70;416.38;;;;;;;;;;5024145;28;20042;-80
2021/06/15 04:16:25;;;;;;;502.17;408.05;;;;;;;;;;5025226;28;20052;-81
2021/06/15 04:18:52;;;;;;;510.67;416.52;;;;;;;;;;5007929;28;20045;-81
2021/06/15 04:21:19;;;;;;;504.63;408.48;;;;;;;;;;5019576;28;20410;-81
2021/06/15 04:23:48;;;;;;;514.60;418.30;;;;;;;;;;5017928;28;20080;-81
2021/06/15 04:26:14;;;;;;;503.70;409.35;;;;;;;;;;5022417;28;20056;-81
2021/06/15 04:28:40;;;;;;;507.67;407.17;;;;;;;;;;5011428;28;20528;-82
2021/06/15 04:31:06;;;;;;;513.22;416.17;;;;;;;;;;5017731;28;20026;-81
2021/06/15 04:33:32;;;;;;;516.85;418.73;;;;;;;;;;5006449;28;20029;-82
2021/06/15 04:36:00;;;;;;;502.63;405.60;;;;;;;;;;5021360;28;20032;-81
2021/06/15 04:38:39;;;;;;;510.23;414.33;;;;;;;;;;5005131;28;20464;-81
2021/06/15 04:41:07;;;;;;;504.03;401.73;;;;;;;;;;5018602;28;20341;-85
2021/06/15 04:43:38;;;;;;;506.85;409.17;;;;;;;;;;5006411;28;20025;-81
2021/06/15 04:46:15;;;;;;;497.42;398.88;;;;;;;;;;5022136;28;20100;-81
2021/06/15 04:48:43;;;;;;;507.48;414.58;;;;;;;;;;5023543;28;20737;-82
2021/06/15 04:51:11;;;;;;;501.30;405.77;;;;;;;;;;5018993;28;20037;-81
2021/06/15 04:53:38;;;;;;;496.63;399.95;;;;;;;;;;5020808;28;20104;-80
2021/06/15 04:56:05;;;;;;;500.85;404.88;;;;;;;;;;5019349;28;20149;-81
2021/06/15 04:58:33;;;;;;;511.52;416.52;;;;;;;;;;5022994;28;20426;-81
2021/06/15 05:01:00;;;;;;;502.13;404.05;;;;;;;;;;5022907;28;20033;-80
2021/06/15 05:03:28;;;;;;;500.85;404.52;;;;;;;;;;5021724;28;20022;-81
2021/06/15 05:05:54;;;;;;;502.17;409.20;;;;;;;;;;5016303;28;20032;-81
2021/06/15 05:08:22;;;;;;;503.15;407.33;;;;;;;;;;5021414;28;20030;-81
2021/06/15 05:10:49;;;;;;;511.67;411.42;;;;;;;;;;5020289;28;20033;-80
2021/06/15 05:13:15;;;;;;;498.70;402.40;;;;;;;;;;5007019;28;20033;-82
2021/06/15 05:15:44;;;;;;;505.02;406.83;;;;;;;;;;5018253;28;20030;-79
2021/06/15 05:18:10;;;;;;;497.35;403.50;;;;;;;;;;5016426;28;20070;-81
2021/06/15 05:20:36;;;;;;;506.88;416.23;;;;;;;;;;5020187;28;20022;-82
2021/06/15 05:23:10;;;;;;;508.30;404.40;;;;;;;;;;5015097;28;20026;-80
2021/06/15 05:25:36;;;;;;;504.75;407.30;;;;;;;;;;5022465;28;20053;-80
2021/06/15 05:28:03;;;;;;;499.45;399.70;;;;;;;;;;5021606;28;20029;-80
2021/06/15 05:30:29;;;;;;;500.10;403.00;;;;;;;;;;5019602;28;20060;-80
2021/06/15 05:32:55;;;;;;;504.60;408.92;;;;;;;;;;5024250;28;20037;-80
2021/06/15 05:35:21;;;;;;;503.20;406.00;;;;;;;;;;5020060;28;20077;-81
2021/06/15 05:37:48;;;;;;;505.55;410.45;;;;;;;;;;5023346;28;20083;-81
2021/06/15 05:40:14;;;;;;;507.30;414.23;;;;;;;;;;5018768;28;20676;-81
2021/06/15 05:42:40;;;;;;;501.15;408.63;;;;;;;;;;5017736;28;20025;-81
2021/06/15 05:45:07;;;;;;;503.20;402.80;;;;;;;;;;5018128;28;20033;-83
2021/06/15 05:47:33;;;;;;;504.08;407.30;;;;;;;;;;5021225;28;20115;-81
2021/06/15 05:49:59;;;;;;;500.13;404.70;;;;;;;;;;5011859;28;20478;-80
2021/06/15 05:52:25;;;;;;;506.75;409.17;;;;;;;;;;5002787;28;20068;-79
2021/06/15 05:54:51;;;;;;;503.40;403.48;;;;;;;;;;5004341;28;20018;-80
2021/06/15 05:57:18;;;;;;;498.80;402.67;;;;;;;;;;5014180;28;20033;-81
2021/06/15 05:59:44;;;;;;;501.67;405.55;;;;;;;;;;5022717;28;20042;-81
2021/06/15 06:02:10;;;;;;;504.23;410.23;;;;;;;;;;5021338;28;20679;-80
2021/06/15 06:05:02;;;;;;;500.83;411.83;;;;;;;;;;5005805;28;20026;-81
2021/06/15 06:10:14;;;;;;;500.55;400.83;;;;;;;;;;5025750;28;20048;-81
2021/06/15 06:12:40;;;;;;;496.58;405.02;;;;;;;;;;5018004;28;20022;-80
2021/06/15 06:15:07;;;;;;;500.90;410.02;;;;;;;;;;5015897;28;20022;-82
2021/06/15 06:17:33;;;;;;;510.00;419.02;;;;;;;;;;5017942;28;20040;-82
2021/06/15 06:19:59;;;;;;;508.67;410.35;;;;;;;;;;5025124;28;20038;-81
2021/06/15 06:22:25;;;;;;;505.42;417.27;;;;;;;;;;5018532;28;20021;-81
2021/06/15 06:24:54;;;;;;;500.83;411.42;;;;;;;;;;5019274;28;20050;-81
2021/06/15 06:27:20;;;;;;;505.77;415.25;;;;;;;;;;5003337;28;20048;-81
2021/06/15 06:29:46;;;;;;;500.45;409.80;;;;;;;;;;5008209;28;20516;-84
2021/06/15 06:32:12;;;;;;;507.20;419.30;;;;;;;;;;5010733;28;20034;-83
2021/06/15 06:34:38;;;;;;;498.33;411.13;;;;;;;;;;5005900;28;20021;-81
2021/06/15 06:37:05;;;;;;;499.38;409.23;;;;;;;;;;5020855;28;20078;-81
2021/06/15 06:39:31;;;;;;;500.25;414.50;;;;;;;;;;5023365;28;20072;-80
2021/06/15 06:41:57;;;;;;;493.50;403.63;;;;;;;;;;5009135;28;20026;-81
2021/06/15 06:44:23;;;;;;;496.70;410.23;;;;;;;;;;5004882;28;20029;-81
2021/06/15 06:46:49;;;;;;;498.95;412.38;;;;;;;;;;5024210;28;20029;-83
2021/06/15 06:49:18;;;;;;;508.08;417.90;;;;;;;;;;5010125;28;20774;-85
2021/06/15 06:51:47;;;;;;;494.35;405.90;;;;;;;;;;5025614;28;20101;-80
2021/06/15 06:54:13;;;;;;;498.08;410.85;;;;;;;;;;5021890;28;20072;-81
2021/06/15 06:56:39;;;;;;;501.25;418.35;;;;;;;;;;5019546;28;20065;-79
2021/06/15 06:59:05;;;;;;;510.05;417.35;;;;;;;;;;5007154;28;20497;-80
2021/06/15 07:01:31;;;;;;;502.95;422.13;;;;;;;;;;5001705;28;20021;-80
2021/06/15 07:04:02;;;;;;;498.38;418.17;;;;;;;;;;5013532;28;20036;-80
2021/06/15 07:06:28;;;;;;;501.92;425.77;;;;;;;;;;5012292;28;20033;-80
2021/06/15 07:08:54;;;;;;;500.13;417.17;;;;;;;;;;5014074;28;20045;-82
2021/06/15 07:11:20;;;;;;;499.92;417.27;;;;;;;;;;5008157;28;20054;-81
2021/06/15 07:13:46;;;;;;;498.42;409.77;;;;;;;;;;4993544;28;20355;-80
2021/06/15 07:16:12;;;;;;;500.95;416.67;;;;;;;;;;5002905;28;20471;-82
2021/06/15 07:18:39;;;;;;;501.83;422.38;;;;;;;;;;5016223;28;20069;-79
2021/06/15 07:21:06;;;;;;;503.45;419.13;;;;;;;;;;5022910;28;20072;-81
2021/06/15 07:23:32;;;;;;;502.58;422.27;;;;;;;;;;5016143;28;20060;-81
2021/06/15 07:25:58;;;;;;;498.73;413.30;;;;;;;;;;5018419;28;20046;-80
2021/06/15 07:28:24;;;;;;;501.08;417.42;;;;;;;;;;5020445;28;20477;-80
2021/06/15 07:30:50;;;;;;;502.42;420.25;;;;;;;;;;5016699;28;20117;-81
2021/06/15 07:33:16;;;;;;;504.50;424.00;;;;;;;;;;5016112;28;20123;-81
2021/06/15 07:35:42;;;;;;;498.08;414.52;;;;;;;;;;5006361;28;20118;-80
2021/06/15 07:38:08;;;;;;;501.25;422.65;;;;;;;;;;5026640;28;20513;-81
2021/06/15 07:40:34;;;;;;;501.05;422.02;;;;;;;;;;5019917;28;20129;-80
2021/06/15 07:43:00;;;;;;;506.15;430.30;;;;;;;;;;5027904;28;20022;-82
2021/06/15 07:45:28;;;;;;;502.15;427.92;;;;;;;;;;5019485;28;20021;-83
2021/06/15 07:47:54;;;;;;;503.92;430.15;;;;;;;;;;5015446;28;20028;-82
2021/06/15 07:50:20;;;;;;;508.92;438.00;;;;;;;;;;5020060;28;20033;-80
2021/06/15 07:52:47;;;;;;;502.13;423.88;;;;;;;;;;5008738;28;20033;-82
2021/06/15 07:55:14;;;;;;;506.85;431.20;;;;;;;;;;5018102;28;20041;-76
2021/06/15 07:57:40;;;;;;;503.20;427.35;;;;;;;;;;5027720;28;20075;-82
2021/06/15 08:00:07;;;;;;;503.83;427.35;;;;;;;;;;5003950;28;20099;-80
2021/06/15 08:02:33;;;;;;;505.20;431.98;;;;;;;;;;5026293;28;20125;-83
2021/06/15 08:04:59;;;;;;;505.10;437.42;;;;;;;;;;5026095;28;20459;-82
2021/06/15 08:07:25;;;;;;;502.48;432.65;;;;;;;;;;5012781;28;20059;-81
2021/06/15 08:09:51;;;;;;;504.80;438.38;;;;;;;;;;5021846;28;20164;-80
2021/06/15 08:12:20;;;;;;;505.55;436.17;;;;;;;;;;5005953;28;20029;-79
2021/06/15 08:14:46;;;;;;;507.63;439.73;;;;;;;;;;5006584;28;20022;-79
2021/06/15 08:17:12;;;;;;;512.15;447.33;;;;;;;;;;5013745;28;20040;-81
2021/06/15 08:19:38;;;;;;;510.83;446.15;;;;;;;;;;5007123;28;20079;-82
2021/06/15 08:22:04;;;;;;;508.27;444.63;;;;;;;;;;5008337;28;20464;-79
2021/06/15 08:24:30;;;;;;;509.05;446.67;;;;;;;;;;5008019;28;20059;-79
2021/06/15 08:26:56;;;;;;;509.20;449.35;;;;;;;;;;4990950;28;20026;-79
2021/06/15 08:29:22;;;;;;;509.80;450.13;;;;;;;;;;5007997;28;20137;-78
2021/06/15 08:31:48;;;;;;;508.95;450.70;;;;;;;;;;5005899;28;20111;-79
2021/06/15 08:34:14;;;;;;;509.15;452.55;;;;;;;;;;4992369;28;20026;-83
2021/06/15 08:36:40;;;;;;;515.42;459.15;;;;;;;;;;5003691;28;20048;-83
2021/06/15 08:39:14;;;;;;;520.05;463.70;;;;;;;;;;4998620;28;20057;-82
2021/06/15 08:41:40;;;;;;;532.20;475.77;;;;;;;;;;5003580;28;20064;-82
2021/06/15 08:44:13;;;;;;;542.65;486.52;;;;;;;;;;5003124;28;20340;-82
2021/06/15 08:46:48;;;;;;;551.40;495.38;;;;;;;;;;5007295;28;20054;-83
2021/06/15 08:49:14;;;;;;;559.28;503.13;;;;;;;;;;5004938;28;20029;-82
2021/06/15 08:51:45;;;;;;;565.22;509.40;;;;;;;;;;5006138;28;20038;-82
2021/06/15 08:54:18;;;;;;;568.88;512.90;;;;;;;;;;5001437;28;20065;-83
2021/06/15 08:56:44;;;;;;;569.00;512.85;;;;;;;;;;4998920;28;20045;-83
2021/06/15 08:59:16;;;;;;;570.67;514.88;;;;;;;;;;5005709;28;20487;-83
2021/06/15 09:01:45;;;;;;;575.60;519.25;;;;;;;;;;5004154;28;20083;-83
2021/06/15 09:04:11;;;;;;;572.70;516.75;;;;;;;;;;4990428;28;20547;-83
2021/06/15 09:06:37;;;;;;;571.95;516.30;;;;;;;;;;4982010;28;20022;-83
2021/06/15 09:09:03;;;;;;;575.85;519.80;;;;;;;;;;5003500;28;20399;-83
2021/06/15 09:11:46;;;;;;;576.65;520.63;;;;;;;;;;5007763;28;20026;-84
2021/06/15 09:14:13;;;;;;;583.33;527.22;;;;;;;;;;5003867;28;20026;-82
2021/06/15 09:16:44;;;;;;;585.92;530.03;;;;;;;;;;5006421;28;20120;-83
2021/06/15 09:19:18;;;;;;;587.33;531.08;;;;;;;;;;5000218;28;20128;-83
2021/06/15 09:21:46;;;;;;;587.42;531.25;;;;;;;;;;5000817;28;20040;-83
2021/06/15 09:24:14;;;;;;;585.90;530.00;;;;;;;;;;5002187;28;21701;-83
2021/06/15 09:27:08;;;;;;;596.47;540.15;;;;;;;;;;5008942;28;20025;-86
2021/06/15 09:29:34;;;;;;;587.65;531.80;;;;;;;;;;5007340;28;20371;-83
2021/06/15 09:32:01;;;;;;;592.47;536.42;;;;;;;;;;5016757;28;20029;-83
2021/06/15 09:34:27;;;;;;;595.03;538.90;;;;;;;;;;5022018;28;20030;-82
2021/06/15 09:36:53;;;;;;;597.67;541.03;;;;;;;;;;5005824;28;20120;-82
2021/06/15 09:39:22;;;;;;;599.58;543.58;;;;;;;;;;5015397;28;20060;-83
2021/06/15 09:41:49;;;;;;;604.40;548.42;;;;;;;;;;5019659;28;20045;-84
2021/06/15 09:44:18;;;;;;;618.90;562.13;;;;;;;;;;5020724;28;20030;-83
2021/06/15 09:46:57;;;;;;;618.28;561.90;;;;;;;;;;5006157;28;20076;-84
2021/06/15 09:49:27;;;;;;;625.88;569.15;;;;;;;;;;5005726;28;20048;-83
2021/06/15 09:52:18;;;;;;;625.15;568.72;;;;;;;;;;5009554;28;20128;-83
2021/06/15 09:54:44;;;;;;;625.47;569.05;;;;;;;;;;5014692;28;20442;-84
2021/06/15 09:57:19;;;;;;;640.00;583.58;;;;;;;;;;5020042;28;20033;-85
2021/06/15 09:59:57;;;;;;;651.50;594.80;;;;;;;;;;5004445;28;20033;-83
2021/06/15 10:02:27;;;;;;;660.42;603.50;;;;;;;;;;5003181;28;20030;-85
2021/06/15 10:04:53;;;;;;;657.22;600.40;;;;;;;;;;5018577;28;20088;-81
2021/06/15 10:07:26;;;;;;;671.22;614.22;;;;;;;;;;5008537;28;20053;-84
2021/06/15 10:09:52;;;;;;;663.65;606.88;;;;;;;;;;5000907;28;20128;-81
2021/06/15 10:12:18;;;;;;;659.72;602.92;;;;;;;;;;5012139;28;20661;-81
2021/06/15 10:14:47;;;;;;;675.47;618.33;;;;;;;;;;5006491;28;20030;-83
2021/06/15 10:17:13;;;;;;;677.78;620.50;;;;;;;;;;5004525;28;20033;-82
2021/06/15 10:19:40;;;;;;;687.83;630.47;;;;;;;;;;5026075;28;20053;-82
2021/06/15 10:22:07;;;;;;;690.00;632.83;;;;;;;;;;5011775;28;20120;-82
2021/06/15 10:24:36;;;;;;;694.05;636.90;;;;;;;;;;5007638;28;20708;-83
2021/06/15 10:27:03;;;;;;;704.87;647.37;;;;;;;;;;5021572;28;20371;-85
2021/06/15 10:29:29;;;;;;;709.55;652.28;;;;;;;;;;5022944;28;20284;-84
2021/06/15 10:31:56;;;;;;;705.38;648.17;;;;;;;;;;5016834;28;20025;-80
2021/06/15 10:34:48;;;;;;;703.42;646.50;;;;;;;;;;5010226;28;20632;-84
2021/06/15 10:37:37;;;;;;;706.67;649.42;;;;;;;;;;5000000;28;20033;-83
2021/06/15 10:40:06;;;;;;;715.38;657.75;;;;;;;;;;5002564;28;20118;-82
2021/06/15 10:42:32;;;;;;;730.20;671.88;;;;;;;;;;5013685;28;20104;-82
2021/06/15 10:45:15;;;;;;;732.13;674.85;;;;;;;;;;5035065;28;20088;-83
2021/06/15 10:48:10;;;;;;;726.88;669.85;;;;;;;;;;5026361;28;20025;-84
2021/06/15 10:50:36;;;;;;;723.45;665.88;;;;;;;;;;5001672;28;20034;-83
2021/06/15 10:53:32;;;;;;;704.10;647.20;;;;;;;;;;5009415;28;20532;-86
2021/06/15 10:56:32;;;;;;;695.90;638.35;;;;;;;;;;5026002;28;20053;-85
2021/06/15 10:59:02;;;;;;;;;;;;;;;;;;5025624;28;20029;-81
2021/06/15 11:01:30;;;;;;;;;;;;;;;;;;5017241;28;20011;-81
2021/06/15 11:04:22;;;;;;;650.45;593.90;;;;;;;;;;5010957;28;20347;-82
2021/06/15 11:07:04;;;;;;;648.70;592.30;;;;;;;;;;4974492;28;20030;-86
2021/06/15 11:09:43;;;;;;;658.00;600.97;;;;;;;;;;5024529;28;20033;-81
2021/06/15 11:12:14;;;;;;;653.30;596.92;;;;;;;;;;5015075;28;20118;-86
2021/06/15 11:14:40;;;;;;;657.33;600.90;;;;;;;;;;5011124;28;20100;-80
2021/06/15 11:17:07;;;;;;;665.65;608.92;;;;;;;;;;5007662;28;20041;-81
2021/06/15 11:19:37;;;;;;;665.63;608.92;;;;;;;;;;5027829;28;20022;-82
2021/06/15 11:22:03;;;;;;;;;;;;;;;;;;5008267;28;20527;-82
2021/06/15 11:24:39;;;;;;;654.72;598.50;;;;;;;;;;5004396;28;20593;-81
2021/06/15 11:27:18;;;;;;;662.20;605.58;;;;;;;;;;5008020;28;20096;-82
2021/06/15 11:30:23;;;;;;;656.40;599.92;;;;;;;;;;4986503;28;20029;-81
2021/06/15 11:43:06;;;;;;;;;;;;;;;;;;;;;
2021/06/15 11:46:04;;;;;;;642.58;585.97;;;;;;;;;;5006723;28;20022;-81
2021/06/15 11:48:44;;;;;;;643.17;586.58;;;;;;;;;;4991346;28;20529;-79
2021/06/15 11:54:46;;;;;;;652.17;595.38;;;;;;;;;;5017500;28;20064;-81
2021/06/15 11:57:17;;;;;;;663.08;606.13;;;;;;;;;;5007920;28;20038;-82
2021/06/15 11:59:48;;;;;;;670.83;613.95;;;;;;;;;;4992843;28;20122;-80
2021/06/15 12:02:19;;;;;;;664.70;608.30;;;;;;;;;;4983649;28;20038;-79
2021/06/15 12:05:03;;;;;;;681.53;624.67;;;;;;;;;;4974110;28;20030;-79
2021/06/15 12:07:31;;;;;;;683.72;626.40;;;;;;;;;;4987148;28;20133;-81
2021/06/15 12:10:07;;;;;;;694.72;636.83;;;;;;;;;;4984156;28;20030;-82
2021/06/15 12:12:53;;;;;;;689.80;632.97;;;;;;;;;;4972012;28;20054;-81
2021/06/15 12:15:26;;;;;;;702.47;644.75;;;;;;;;;;4977744;28;20043;-82
2021/06/15 12:17:52;;;;;;;696.97;640.08;;;;;;;;;;4972645;28;20041;-78
2021/06/15 12:20:28;;;;;;;720.33;661.88;;;;;;;;;;4984868;28;20372;-80
2021/06/15 12:22:55;;;;;;;724.55;666.33;;;;;;;;;;4972300;28;20506;-81
2021/06/15 12:25:32;;;;;;;734.50;674.95;;;;;;;;;;4995798;28;20048;-79
2021/06/15 12:28:25;;;;;;;713.88;656.28;;;;;;;;;;5028208;28;20045;-80
2021/06/15 12:31:10;;;;;;;720.00;661.65;;;;;;;;;;5000798;28;20040;-80
2021/06/15 12:33:36;;;;;;;711.50;654.22;;;;;;;;;;5017240;28;20025;-80
2021/06/15 12:36:16;;;;;;;711.53;654.00;;;;;;;;;;5006555;28;20564;-81
2021/06/15 12:38:44;;;;;;;718.40;660.70;;;;;;;;;;5023500;28;20483;-81
2021/06/15 12:41:13;;;;;;;712.95;655.47;;;;;;;;;;5004652;28;20684;-79
2021/06/15 12:43:40;;;;;;;729.63;671.38;;;;;;;;;;5008322;28;20037;-80
2021/06/15 12:46:13;;;;;;;722.97;665.28;;;;;;;;;;5010750;28;20037;-80
2021/06/15 12:48:49;;;;;;;731.70;674.00;;;;;;;;;;5011869;28;20108;-74
2021/06/15 12:51:22;;;;;;;752.08;692.42;;;;;;;;;;5005093;28;20673;-81
2021/06/15 12:53:49;;;;;;;751.38;692.38;;;;;;;;;;5004772;28;20109;-81
2021/06/15 12:56:26;;;;;;;745.65;688.03;;;;;;;;;;5006845;28;20061;-81
2021/06/15 12:58:54;;;;;;;753.30;695.13;;;;;;;;;;5025685;28;20041;-81
2021/06/15 13:01:34;;;;;;;746.35;688.83;;;;;;;;;;5001149;28;20026;-79
2021/06/15 13:04:16;;;;;;;747.95;690.13;;;;;;;;;;5010258;28;20025;-81
2021/06/15 13:06:42;;;;;;;742.25;684.45;;;;;;;;;;5012365;28;20021;-80
2021/06/15 13:09:13;;;;;;;734.58;676.70;;;;;;;;;;5003945;28;20040;-80
2021/06/15 13:12:01;;;;;;;738.47;680.45;;;;;;;;;;5004142;28;20288;-82
2021/06/15 13:14:29;;;;;;;754.80;694.35;;;;;;;;;;5003782;28;20042;-81
2021/06/15 13:17:00;;;;;;;742.55;684.00;;;;;;;;;;5018269;28;20026;-81
2021/06/15 13:19:39;;;;;;;743.55;684.70;;;;;;;;;;4999163;28;20115;-80
2021/06/15 13:22:06;;;;;;;723.88;666.58;;;;;;;;;;5022891;28;20029;-81
2021/06/15 13:24:38;;;;;;;735.47;677.00;;;;;;;;;;5006032;28;20050;-80
2021/06/15 13:27:22;;;;;;;732.92;674.08;;;;;;;;;;5014805;28;20025;-81
2021/06/15 13:29:50;;;;;;;725.78;668.17;;;;;;;;;;5011984;28;20030;-81
2021/06/15 13:32:22;;;;;;;724.50;666.75;;;;;;;;;;5005527;28;20470;-80
2021/06/15 13:34:57;;;;;;;720.83;662.63;;;;;;;;;;5013602;28;20029;-80
2021/06/15 13:37:27;;;;;;;708.85;651.05;;;;;;;;;;5009916;28;20037;-80
2021/06/15 13:39:55;;;;;;;709.00;651.25;;;;;;;;;;5025919;28;20376;-80
2021/06/15 13:42:28;;;;;;;703.63;645.92;;;;;;;;;;5018275;28;20527;-79
2021/06/15 13:45:02;;;;;;;708.97;651.15;;;;;;;;;;5020528;28;20025;-80
2021/06/15 13:47:28;;;;;;;706.38;648.67;;;;;;;;;;5027494;28;20117;-82
2021/06/15 13:49:54;;;;;;;706.42;648.42;;;;;;;;;;5026312;28;20572;-80
2021/06/15 13:52:20;;;;;;;703.30;645.72;;;;;;;;;;5016999;28;20049;-81
2021/06/15 13:54:46;;;;;;;703.75;646.15;;;;;;;;;;5012645;28;20057;-81
2021/06/15 13:57:12;;;;;;;706.05;648.08;;;;;;;;;;5007604;28;20025;-80
2021/06/15 13:59:38;;;;;;;701.63;643.50;;;;;;;;;;5024874;28;20037;-80
2021/06/15 14:02:04;;;;;;;686.20;628.80;;;;;;;;;;5018017;28;20080;-80
2021/06/15 14:04:30;;;;;;;690.83;632.78;;;;;;;;;;5010608;28;20025;-79
2021/06/15 14:06:56;;;;;;;691.90;633.92;;;;;;;;;;5009073;28;20032;-80
2021/06/15 14:09:22;;;;;;;692.15;633.63;;;;;;;;;;5010297;28;20050;-80
2021/06/15 14:11:48;;;;;;;669.20;612.08;;;;;;;;;;5018197;28;20017;-80
2021/06/15 14:14:14;;;;;;;672.63;615.05;;;;;;;;;;5004953;28;20041;-80
2021/06/15 14:16:40;;;;;;;667.30;610.10;;;;;;;;;;5007832;28;20685;-79
2021/06/15 14:19:06;;;;;;;660.28;603.20;;;;;;;;;;5013974;28;20480;-80
2021/06/15 14:21:37;;;;;;;670.38;610.60;;;;;;;;;;5019663;28;20125;-81
2021/06/15 14:24:12;;;;;;;653.67;596.03;;;;;;;;;;5011105;28;20068;-83